Time;durP1;ratioP1;P1;durP2;ratioP2;P2;SDS_P1;SDS_P2;PMS_P1;PMS_P2;Temp;Humidity;BMP_temperature;BMP_pressure;BME280_temperature;BME280_humidity;BME280_pressure;Samples;Min_cycle;Max_cycle;Signal;HPM_P1;HPM_P2
2023/12/22 00:01:06;;;;;;;46.70;34.30;;;;;;;2.86;82.99;97906.06;5130668;28;20076;-83
2023/12/22 00:03:31;;;;;;;29.80;17.55;;;;;;;2.59;82.82;97914.28;5131785;27;20094;-83
2023/12/22 00:05:57;;;;;;;27.30;15.98;;;;;;;2.20;83.87;97910.41;5131858;27;20038;-83
2023/12/22 00:08:23;;;;;;;24.10;14.88;;;;;;;2.43;84.45;97913.91;5131763;27;20031;-83
2023/12/22 00:10:49;;;;;;;27.88;15.90;;;;;;;2.32;84.49;97902.34;5119290;27;20027;-76
2023/12/22 00:13:14;;;;;;;25.58;14.10;;;;;;;2.32;84.25;97904.28;5109836;28;20027;-76
2023/12/22 00:15:40;;;;;;;23.38;13.88;;;;;;;2.33;84.18;97905.91;5109835;28;20019;-76
2023/12/22 00:18:06;;;;;;;21.85;13.93;;;;;;;2.13;85.49;97904.53;5109752;28;20024;-76
2023/12/22 00:20:31;;;;;;;24.42;13.77;;;;;;;1.64;87.64;97897.78;5111231;28;20024;-76
2023/12/22 00:22:57;;;;;;;23.67;13.13;;;;;;;1.64;87.56;97910.72;5109717;28;20416;-76
2023/12/22 00:25:22;;;;;;;20.50;12.15;;;;;;;1.58;88.39;97900.97;5109829;28;20023;-76
2023/12/22 00:27:48;;;;;;;22.05;11.95;;;;;;;1.65;88.07;97901.34;5110951;28;20747;-76
2023/12/22 00:30:14;;;;;;;28.77;14.55;;;;;;;1.26;90.54;97909.97;5109771;28;20470;-75
2023/12/22 00:32:39;;;;;;;29.40;15.07;;;;;;;1.20;92.45;97904.91;5109701;28;20024;-77
2023/12/22 00:35:05;;;;;;;26.25;16.15;;;;;;;1.03;93.26;97894.53;5110992;28;20076;-76
2023/12/22 00:37:30;;;;;;;27.90;14.48;;;;;;;1.11;93.31;97894.63;5110661;28;20126;-76
2023/12/22 00:39:56;;;;;;;25.30;15.05;;;;;;;1.09;93.48;97887.81;5109761;28;20054;-76
2023/12/22 00:42:21;;;;;;;26.60;14.32;;;;;;;1.00;93.96;97890.47;5110983;28;20020;-75
2023/12/22 00:44:47;;;;;;;27.77;15.32;;;;;;;0.94;94.60;97894.47;5109505;28;20027;-76
2023/12/22 00:47:12;;;;;;;26.63;14.73;;;;;;;1.18;93.25;97888.66;5109530;28;20026;-75
2023/12/22 00:49:38;;;;;;;21.55;12.93;;;;;;;1.09;93.17;97893.31;5109399;28;20024;-76
2023/12/22 00:52:03;;;;;;;25.45;15.45;;;;;;;0.94;94.42;97903.53;5112526;28;20031;-76
2023/12/22 00:54:31;;;;;;;23.60;14.57;;;;;;;0.64;96.05;97914.09;5113021;28;20118;-76
2023/12/22 00:56:57;;;;;;;28.88;15.30;;;;;;;0.82;95.08;97906.84;5114480;28;20384;-76
2023/12/22 00:59:23;;;;;;;24.20;15.40;;;;;;;0.64;96.27;97905.00;5114264;28;20498;-76
2023/12/22 01:01:49;;;;;;;26.00;16.38;;;;;;;0.53;97.96;97894.22;5114429;28;20095;-76
2023/12/22 01:04:14;;;;;;;28.55;16.25;;;;;;;0.45;98.75;97902.38;5113172;28;20026;-76
2023/12/22 01:06:40;;;;;;;30.13;16.45;;;;;;;0.41;98.98;97874.66;5114271;28;20471;-76
2023/12/22 01:09:06;;;;;;;30.95;16.50;;;;;;;0.35;99.83;97882.22;5112684;28;20088;-77
2023/12/22 01:11:31;;;;;;;33.97;17.33;;;;;;;0.26;100.00;97889.56;5112805;28;20035;-78
2023/12/22 01:13:57;;;;;;;30.88;19.00;;;;;;;0.35;100.00;97898.72;5113612;28;20030;-76
2023/12/22 01:16:23;;;;;;;31.02;18.45;;;;;;;0.44;100.00;97903.50;5114078;28;20028;-77
2023/12/22 01:18:50;;;;;;;36.53;19.08;;;;;;;0.34;100.00;97910.84;5112638;28;20028;-77
2023/12/22 01:21:16;;;;;;;32.72;18.27;;;;;;;0.43;100.00;97905.47;5112897;28;20080;-82
2023/12/22 01:23:42;;;;;;;30.35;16.05;;;;;;;0.57;99.43;97888.13;5112722;28;20024;-82
2023/12/22 01:26:07;;;;;;;30.05;14.95;;;;;;;0.60;99.44;97899.31;5113908;28;20426;-82
2023/12/22 01:28:34;;;;;;;28.55;17.05;;;;;;;0.55;98.99;97877.41;5112451;28;20028;-82
2023/12/22 01:31:00;;;;;;;28.00;15.10;;;;;;;0.70;98.30;97877.06;5112471;28;20031;-82
2023/12/22 01:33:25;;;;;;;24.60;14.32;;;;;;;0.57;98.02;97871.63;5112407;28;20027;-83
2023/12/22 01:35:51;;;;;;;24.00;14.13;;;;;;;0.63;97.89;97849.19;5112878;28;20034;-82
2023/12/22 01:38:16;;;;;;;25.08;14.95;;;;;;;0.95;97.09;97841.84;5113449;28;20039;-81
2023/12/22 01:40:41;;;;;;;25.83;15.57;;;;;;;1.20;96.99;97845.09;5112988;28;20510;-81
2023/12/22 01:43:07;;;;;;;24.75;13.95;;;;;;;1.32;94.98;97840.97;5113009;28;20051;-81
2023/12/22 01:45:32;;;;;;;23.80;14.45;;;;;;;1.33;94.06;97845.38;5112161;28;20077;-80
2023/12/22 01:47:58;;;;;;;31.25;15.23;;;;;;;1.52;93.63;97834.94;5113360;28;20077;-80
2023/12/22 01:50:25;;;;;;;28.98;15.80;;;;;;;1.70;93.67;97826.78;5113282;28;20411;-80
2023/12/22 01:52:50;;;;;;;26.60;15.90;;;;;;;1.91;92.63;97843.59;5112093;28;20411;-80
2023/12/22 01:55:17;;;;;;;25.73;14.35;;;;;;;1.78;91.77;97820.50;5111935;28;20023;-80
2023/12/22 01:57:44;;;;;;;27.45;14.40;;;;;;;1.76;92.14;97830.22;5113276;28;20079;-80
2023/12/22 02:00:12;;;;;;;26.55;14.65;;;;;;;1.65;92.70;97822.22;5111880;28;20019;-81
2023/12/22 02:02:38;;;;;;;27.42;15.38;;;;;;;1.89;91.96;97818.28;5113277;28;20050;-81
2023/12/22 02:05:05;;;;;;;26.75;16.73;;;;;;;1.88;92.06;97810.31;5111725;28;20119;-80
2023/12/22 02:07:32;;;;;;;35.95;19.55;;;;;;;1.87;91.94;97817.78;5112978;28;20024;-80
2023/12/22 02:09:57;;;;;;;37.35;20.60;;;;;;;1.97;91.43;97813.94;5112968;28;20023;-81
2023/12/22 02:12:23;;;;;;;33.10;16.77;;;;;;;1.61;91.97;97810.19;5111686;28;20023;-81
2023/12/22 02:14:48;;;;;;;27.98;16.08;;;;;;;0.99;94.82;97806.22;5112812;28;20034;-81
2023/12/22 02:17:33;;;;;;;29.58;16.90;;;;;;;1.17;95.28;97782.38;5111620;28;20039;-81
2023/12/22 02:19:58;;;;;;;35.28;16.60;;;;;;;1.05;96.13;97793.16;5112889;28;20028;-81
2023/12/22 02:22:24;;;;;;;30.42;16.63;;;;;;;1.35;95.51;97801.78;5113392;28;20027;-81
2023/12/22 02:24:49;;;;;;;32.65;18.85;;;;;;;1.53;95.01;97784.22;5112718;28;20500;-81
2023/12/22 02:27:34;;;;;;;31.73;16.60;;;;;;;1.69;93.92;97792.09;5112631;28;20027;-81
2023/12/22 02:30:11;;;;;;;40.33;20.88;;;;;;;1.71;93.25;97786.25;5112691;28;20043;-81
2023/12/22 02:32:48;;;;;;;52.17;22.92;;;;;;;1.71;93.38;97783.47;5112516;28;20111;-81
2023/12/22 02:35:20;;;;;;;48.22;21.10;;;;;;;1.78;92.99;97776.38;5112372;28;20377;-81
2023/12/22 02:37:47;;;;;;;43.92;20.08;;;;;;;1.67;93.67;97772.28;5111015;28;20044;-81
2023/12/22 02:40:14;;;;;;;54.92;20.85;;;;;;;1.55;94.70;97786.66;5111053;28;20023;-81
2023/12/22 02:42:41;;;;;;;50.83;21.20;;;;;;;1.77;93.94;97794.06;5112262;28;20027;-81
2023/12/22 02:45:12;;;;;;;33.72;17.80;;;;;;;1.78;93.37;97784.66;5110976;28;20412;-80
2023/12/22 02:47:38;;;;;;;33.60;16.83;;;;;;;1.80;93.53;97787.88;5110901;28;20027;-80
2023/12/22 02:50:03;;;;;;;32.00;17.40;;;;;;;1.89;93.17;97784.38;5112286;28;20021;-80
2023/12/22 02:52:31;;;;;;;26.48;16.27;;;;;;;1.72;93.23;97783.19;5112089;28;20157;-81
2023/12/22 02:54:57;;;;;;;29.23;16.60;;;;;;;1.77;93.58;97785.78;5112066;28;20491;-80
2023/12/22 02:57:22;;;;;;;36.47;17.35;;;;;;;1.94;93.54;97800.78;5112080;28;20028;-80
2023/12/22 02:59:48;;;;;;;33.92;17.42;;;;;;;1.97;93.04;97794.63;5110655;28;20015;-80
2023/12/22 03:02:14;;;;;;;41.05;20.00;;;;;;;1.82;93.55;97780.13;5112051;28;20384;-80
2023/12/22 03:04:40;;;;;;;36.75;18.42;;;;;;;1.89;93.34;97771.41;5110633;28;20061;-80
2023/12/22 03:07:05;;;;;;;38.45;17.73;;;;;;;2.02;92.94;97771.59;5111898;28;20548;-80
2023/12/22 03:09:32;;;;;;;30.65;17.35;;;;;;;1.92;92.65;97764.41;5110564;28;20102;-80
2023/12/22 03:12:01;;;;;;;32.80;17.80;;;;;;;2.07;92.30;97761.25;5111820;28;20049;-80
2023/12/22 03:14:34;;;;;;;37.50;22.48;;;;;;;1.97;92.29;97767.03;5110059;28;20496;-80
2023/12/22 03:17:01;;;;;;;41.20;20.88;;;;;;;1.49;94.49;97785.97;5111733;28;20388;-80
2023/12/22 03:19:26;;;;;;;39.38;19.33;;;;;;;1.21;96.25;97777.06;5110397;28;20030;-81
2023/12/22 03:21:51;;;;;;;36.55;19.73;;;;;;;1.51;96.27;97775.44;5111610;28;20023;-80
2023/12/22 03:24:22;;;;;;;30.95;16.92;;;;;;;1.64;95.72;97772.91;5110447;28;20036;-80
2023/12/22 03:26:48;;;;;;;33.42;17.90;;;;;;;1.75;94.59;97771.50;5111649;28;20384;-80
2023/12/22 03:29:14;;;;;;;27.60;14.90;;;;;;;1.60;94.93;97786.50;5110502;28;20088;-81
2023/12/22 03:31:40;;;;;;;28.02;15.73;;;;;;;1.50;95.62;97775.75;5110706;28;20020;-81
2023/12/22 03:34:05;;;;;;;30.02;17.23;;;;;;;1.48;96.24;97778.84;5110164;28;20114;-80
2023/12/22 03:36:31;;;;;;;31.77;17.25;;;;;;;1.24;96.48;97768.16;5110091;28;20403;-80
2023/12/22 03:38:56;;;;;;;25.95;15.95;;;;;;;1.28;97.00;97776.63;5111534;28;20020;-81
2023/12/22 03:41:22;;;;;;;25.67;16.52;;;;;;;1.23;96.81;97764.63;5111688;28;20026;-84
2023/12/22 03:43:47;;;;;;;30.92;17.83;;;;;;;1.29;97.23;97775.47;5111807;28;20027;-84
2023/12/22 03:46:12;;;;;;;29.05;17.02;;;;;;;1.33;97.03;97771.78;5110176;28;20057;-84
2023/12/22 03:48:38;;;;;;;27.45;16.20;;;;;;;1.35;96.76;97775.03;5111406;28;20487;-84
2023/12/22 03:51:03;;;;;;;24.48;15.85;;;;;;;1.32;97.33;97767.41;5110217;28;20415;-84
2023/12/22 03:53:29;;;;;;;31.02;17.35;;;;;;;0.55;100.00;97792.94;5111509;28;20028;-84
2023/12/22 03:55:55;;;;;;;29.25;17.20;;;;;;;0.86;100.00;97752.88;5110113;28;20030;-85
2023/12/22 03:58:20;;;;;;;29.95;16.95;;;;;;;1.09;100.00;97766.63;5111424;28;20483;-84
2023/12/22 04:00:46;;;;;;;27.67;16.02;;;;;;;1.20;100.00;97745.94;5109966;28;20031;-84
2023/12/22 04:03:11;;;;;;;32.85;17.38;;;;;;;1.12;100.00;97744.75;5110056;28;20050;-84
2023/12/22 04:05:37;;;;;;;36.55;21.15;;;;;;;1.23;100.00;97761.84;5110015;28;20024;-84
2023/12/22 04:08:03;;;;;;;28.10;18.23;;;;;;;1.19;100.00;97736.06;5109956;28;20073;-84
2023/12/22 04:10:28;;;;;;;32.63;17.95;;;;;;;0.84;100.00;97766.09;5111270;28;20023;-84
2023/12/22 04:12:54;;;;;;;30.83;16.40;;;;;;;1.12;100.00;97747.53;5110100;28;20019;-84
2023/12/22 04:15:19;;;;;;;34.70;22.42;;;;;;;1.21;100.00;97739.31;5109926;28;20407;-83
2023/12/22 04:17:45;;;;;;;31.27;17.85;;;;;;;1.22;100.00;97731.84;5109932;28;20023;-84
2023/12/22 04:20:10;;;;;;;27.20;16.80;;;;;;;1.26;100.00;97721.81;5111130;28;20027;-83
2023/12/22 04:22:35;;;;;;;32.00;17.52;;;;;;;1.33;100.00;97713.13;5109850;28;20062;-83
2023/12/22 04:25:01;;;;;;;27.77;17.25;;;;;;;1.60;100.00;97725.88;5111511;28;20024;-84
2023/12/22 04:27:26;;;;;;;35.70;18.83;;;;;;;1.77;99.96;97725.13;5113680;28;20042;-84
2023/12/22 04:29:52;;;;;;;33.28;19.63;;;;;;;1.77;99.74;97725.13;5113915;28;20491;-84
2023/12/22 04:32:17;;;;;;;30.30;16.92;;;;;;;1.81;99.53;97722.53;5115017;27;20407;-84
2023/12/22 04:34:43;;;;;;;28.45;17.02;;;;;;;1.67;100.00;97729.00;5113657;28;20024;-83
2023/12/22 04:37:09;;;;;;;27.65;18.60;;;;;;;1.70;100.00;97735.00;5114699;28;20132;-83
2023/12/22 04:39:34;;;;;;;27.52;17.33;;;;;;;1.66;100.00;97723.78;5115496;28;20501;-84
2023/12/22 04:42:00;;;;;;;30.92;16.20;;;;;;;1.88;100.00;97731.19;5114893;28;20097;-83
2023/12/22 04:44:25;;;;;;;30.50;18.00;;;;;;;1.65;100.00;97714.72;5114908;27;20084;-83
2023/12/22 04:46:51;;;;;;;38.58;25.17;;;;;;;1.81;100.00;97711.53;5113418;28;20042;-83
2023/12/22 04:49:18;;;;;;;33.45;19.63;;;;;;;1.71;100.00;97720.91;5113328;28;20081;-76
2023/12/22 04:51:43;;;;;;;30.25;17.70;;;;;;;1.88;100.00;97708.28;5114472;27;20454;-80
2023/12/22 04:54:09;;;;;;;32.80;17.35;;;;;;;1.94;99.99;97718.06;5114666;28;20101;-81
2023/12/22 04:56:34;;;;;;;28.27;18.10;;;;;;;2.01;99.06;97717.59;5114852;28;20023;-80
2023/12/22 04:59:00;;;;;;;31.88;17.63;;;;;;;1.78;100.00;97712.97;5114652;28;20084;-81
2023/12/22 05:01:25;;;;;;;28.02;16.17;;;;;;;1.81;100.00;97703.25;5115269;28;20085;-81
2023/12/22 05:03:51;;;;;;;28.98;15.10;;;;;;;1.88;100.00;97719.31;5113010;28;20027;-81
2023/12/22 05:06:16;;;;;;;27.98;15.68;;;;;;;1.76;100.00;97712.47;5114295;28;20039;-80
2023/12/22 05:08:42;;;;;;;30.95;17.73;;;;;;;1.91;100.00;97718.66;5112956;28;20061;-81
2023/12/22 05:11:07;;;;;;;25.83;16.85;;;;;;;1.78;100.00;97715.72;5112947;28;20028;-80
2023/12/22 05:13:33;;;;;;;35.20;16.98;;;;;;;1.79;100.00;97716.53;5113784;27;20059;-81
2023/12/22 05:15:58;;;;;;;25.48;16.15;;;;;;;1.77;100.00;97714.09;5118221;27;20042;-80
2023/12/22 05:18:24;;;;;;;27.73;16.92;;;;;;;1.85;100.00;97697.91;5112920;28;20027;-74
2023/12/22 05:20:49;;;;;;;34.50;18.30;;;;;;;1.98;99.98;97716.28;5114299;28;20049;-73
2023/12/22 05:23:16;;;;;;;39.08;21.20;;;;;;;1.99;99.65;97709.63;5114510;28;20034;-78
2023/12/22 05:25:41;;;;;;;45.38;23.83;;;;;;;1.66;100.00;97702.56;5112720;28;20036;-79
2023/12/22 05:28:06;;;;;;;56.88;26.67;;;;;;;1.96;100.00;97697.28;5112444;28;20028;-84
2023/12/22 05:30:32;;;;;;;55.35;28.23;;;;;;;1.87;100.00;97687.38;5118239;28;20085;-81
2023/12/22 05:32:57;;;;;;;66.15;29.50;;;;;;;1.74;100.00;97687.19;5124370;28;20027;-81
2023/12/22 05:35:23;;;;;;;41.20;22.73;;;;;;;1.71;100.00;97689.75;5123592;28;20042;-81
2023/12/22 05:37:48;;;;;;;32.15;19.23;;;;;;;1.84;100.00;97686.06;5123488;28;20108;-81
2023/12/22 05:40:14;;;;;;;34.97;18.10;;;;;;;1.83;100.00;97695.47;5124360;28;20058;-80
2023/12/22 05:42:39;;;;;;;32.13;19.42;;;;;;;1.74;100.00;97683.59;5123849;28;20038;-81
2023/12/22 05:45:06;;;;;;;30.08;18.02;;;;;;;1.92;100.00;97696.31;5121025;28;20049;-81
2023/12/22 05:47:32;;;;;;;33.40;19.00;;;;;;;1.78;100.00;97710.22;5125225;27;20034;-81
2023/12/22 05:49:57;;;;;;;32.55;20.20;;;;;;;1.75;100.00;97716.38;5145241;27;20023;-81
2023/12/22 05:52:23;;;;;;;40.75;18.02;;;;;;;1.60;100.00;97716.81;5149697;27;20019;-81
2023/12/22 05:54:48;;;;;;;44.50;26.77;;;;;;;1.44;100.00;97716.41;5147583;27;20042;-82
2023/12/22 05:57:14;;;;;;;41.33;23.45;;;;;;;1.45;100.00;97718.88;5142412;27;20023;-82
2023/12/22 05:59:39;;;;;;;34.47;21.33;;;;;;;1.72;100.00;97721.69;5141104;27;20019;-77
2023/12/22 06:02:05;;;;;;;36.58;19.30;;;;;;;1.76;100.00;97709.72;5133705;27;20038;-77
2023/12/22 06:04:31;;;;;;;37.30;21.08;;;;;;;1.21;100.00;97721.97;5132387;27;20038;-77
2023/12/22 06:06:56;;;;;;;34.33;21.00;;;;;;;1.30;100.00;97727.53;5133588;27;20125;-78
2023/12/22 06:09:22;;;;;;;39.15;20.70;;;;;;;1.57;100.00;97731.19;5132149;27;20095;-77
2023/12/22 06:11:48;;;;;;;33.53;18.15;;;;;;;1.68;100.00;97732.53;5133566;27;20060;-77
2023/12/22 06:14:14;;;;;;;45.50;24.90;;;;;;;1.86;100.00;97727.09;5132209;27;20116;-77
2023/12/22 06:16:40;;;;;;;35.38;22.60;;;;;;;1.66;100.00;97716.34;5133433;27;20054;-77
2023/12/22 06:19:06;;;;;;;36.00;18.08;;;;;;;1.74;100.00;97722.19;5133281;27;20023;-77
2023/12/22 06:21:31;;;;;;;32.20;19.92;;;;;;;1.61;100.00;97710.16;5131478;27;20030;-77
2023/12/22 06:23:57;;;;;;;31.25;19.38;;;;;;;1.74;100.00;97711.16;5131961;27;20019;-77
2023/12/22 06:26:23;;;;;;;30.63;18.90;;;;;;;1.82;100.00;97705.69;5133685;27;20030;-77
2023/12/22 06:28:49;;;;;;;33.08;18.30;;;;;;;1.80;100.00;97724.47;5133483;27;20109;-77
2023/12/22 06:31:19;;;;;;;32.50;18.10;;;;;;;1.81;100.00;97723.38;5132147;27;20547;-77
2023/12/22 06:33:46;;;;;;;37.75;19.55;;;;;;;1.90;100.00;97733.59;5132298;27;20025;-77
2023/12/22 06:36:22;;;;;;;37.67;20.88;;;;;;;1.79;100.00;97739.41;5132346;27;20355;-77
2023/12/22 06:38:48;;;;;;;34.13;20.08;;;;;;;1.61;100.00;97733.00;5136536;27;20527;-81
2023/12/22 06:41:21;;;;;;;32.65;18.85;;;;;;;1.76;100.00;97731.78;5150498;27;20019;-81
2023/12/22 06:43:46;;;;;;;38.17;18.65;;;;;;;1.84;100.00;97740.41;5150752;27;20019;-81
2023/12/22 06:46:18;;;;;;;39.90;21.38;;;;;;;1.75;100.00;97726.56;5149625;27;20082;-81
2023/12/22 06:48:46;;;;;;;35.30;20.50;;;;;;;1.88;100.00;97733.09;5136070;27;20027;-81
2023/12/22 06:51:31;;;;;;;37.80;19.73;;;;;;;2.10;100.00;97732.19;5131288;27;20031;-80
2023/12/22 06:53:59;;;;;;;33.97;21.00;;;;;;;1.99;100.00;97725.34;5132985;27;20023;-78
2023/12/22 06:56:27;;;;;;;39.33;22.13;;;;;;;2.03;100.00;97737.38;5132752;27;20081;-77
2023/12/22 06:58:54;;;;;;;32.40;18.85;;;;;;;1.61;100.00;97716.47;5132962;27;20494;-77
2023/12/22 07:01:28;;;;;;;37.60;21.15;;;;;;;1.84;100.00;97756.94;5131810;27;20117;-78
2023/12/22 07:03:54;;;;;;;29.60;18.70;;;;;;;1.88;100.00;97728.41;5127570;27;20412;-74
2023/12/22 07:06:21;;;;;;;73.45;35.70;;;;;;;1.82;100.00;97763.59;5128772;27;20121;-75
2023/12/22 07:09:13;;;;;;;41.63;23.92;;;;;;;2.08;100.00;97754.59;5130765;27;20031;-71
2023/12/22 07:11:41;;;;;;;42.88;22.45;;;;;;;2.03;100.00;97764.97;5130889;27;20092;-73
2023/12/22 07:14:06;;;;;;;107.03;44.15;;;;;;;2.09;100.00;97756.22;5129958;27;20027;-72
2023/12/22 07:16:32;;;;;;;73.63;36.17;;;;;;;2.10;100.00;97743.22;5131166;27;20034;-75
2023/12/22 07:18:58;;;;;;;40.67;22.73;;;;;;;1.94;100.00;97743.66;5131380;27;20396;-72
2023/12/22 07:21:23;;;;;;;42.75;24.17;;;;;;;2.16;100.00;97735.59;5131015;27;20033;-73
2023/12/22 07:23:49;;;;;;;43.50;27.85;;;;;;;2.11;100.00;97750.34;5128512;27;20030;-73
2023/12/22 07:26:14;;;;;;;63.97;38.25;;;;;;;2.06;100.00;97756.84;5132421;27;20034;-80
2023/12/22 07:28:40;;;;;;;56.38;33.30;;;;;;;2.06;100.00;97759.63;5130084;27;20027;-78
2023/12/22 07:31:05;;;;;;;60.00;33.88;;;;;;;2.18;100.00;97753.47;5129743;27;20023;-78
2023/12/22 07:33:31;;;;;;;56.72;30.65;;;;;;;2.15;100.00;97756.88;5131088;27;20023;-77
2023/12/22 07:35:56;;;;;;;60.17;30.10;;;;;;;2.17;100.00;97737.22;5130345;27;20445;-76
2023/12/22 07:38:22;;;;;;;53.78;30.25;;;;;;;2.34;100.00;97742.78;5130892;27;20211;-73
2023/12/22 07:40:47;;;;;;;48.10;26.58;;;;;;;2.38;100.00;97734.69;5130945;27;20027;-74
2023/12/22 07:43:14;;;;;;;169.90;95.25;;;;;;;2.51;100.00;97741.16;5130731;27;20023;-79
2023/12/22 07:45:39;;;;;;;69.68;34.35;;;;;;;2.50;100.00;97722.97;5130565;27;20027;-76
2023/12/22 07:48:05;;;;;;;34.50;17.70;;;;;;;2.53;100.00;97727.84;5129923;27;20030;-73
2023/12/22 07:50:30;;;;;;;202.25;138.75;;;;;;;2.47;100.00;97718.91;5130073;27;20034;-74
2023/12/22 07:52:56;;;;;;;65.35;37.80;;;;;;;2.52;100.00;97723.47;5130545;27;20050;-74
2023/12/22 07:55:21;;;;;;;57.22;34.42;;;;;;;2.71;100.00;97736.94;5130044;27;20027;-74
2023/12/22 07:57:47;;;;;;;82.78;51.13;;;;;;;2.59;100.00;97734.00;5128833;28;20079;-74
2023/12/22 08:00:13;;;;;;;54.55;27.95;;;;;;;2.67;100.00;97736.81;5130088;27;20501;-75
2023/12/22 08:02:38;;;;;;;49.67;27.25;;;;;;;2.78;100.00;97730.94;5133018;27;20019;-73
2023/12/22 08:05:04;;;;;;;57.35;30.15;;;;;;;2.87;100.00;97742.00;5134273;27;20031;-73
2023/12/22 08:07:30;;;;;;;55.55;26.70;;;;;;;2.87;100.00;97742.78;5133121;27;20144;-72
2023/12/22 08:24:07;;;;;;;35.50;23.02;;;;;;;4.11;91.81;97737.66;5085287;28;20747;-73
2023/12/22 08:26:33;;;;;;;39.28;23.27;;;;;;;4.15;90.53;97735.03;5085358;28;20032;-71
2023/12/22 08:28:58;;;;;;;41.22;24.95;;;;;;;4.19;89.43;97731.28;5085178;28;20070;-69
2023/12/22 08:31:24;;;;;;;64.55;37.40;;;;;;;4.19;89.98;97742.34;5083996;28;20024;-70
2023/12/22 08:33:49;;;;;;;44.50;26.20;;;;;;;4.16;89.82;97742.19;5083216;28;20078;-71
2023/12/22 08:36:15;;;;;;;44.17;25.50;;;;;;;4.07;91.13;97736.72;5083858;28;20028;-71
2023/12/22 08:38:40;;;;;;;35.47;22.42;;;;;;;3.96;91.86;97732.72;5084823;28;20028;-70
2023/12/22 08:41:10;;;;;;;60.55;34.80;;;;;;;4.04;91.93;97731.84;5083574;28;20115;-74
2023/12/22 08:43:36;;;;;;;;;;;;;;;4.05;92.39;97734.28;5086246;28;20377;-73
2023/12/22 08:46:01;;;;;;;93.95;35.75;;;;;;;4.07;93.13;97725.66;5083721;28;20011;-74
2023/12/22 08:48:27;;;;;;;38.28;23.50;;;;;;;4.10;93.53;97721.38;5083584;28;20107;-75
2023/12/22 08:50:55;;;;;;;43.83;25.52;;;;;;;3.88;95.02;97737.94;5084591;28;20129;-74
2023/12/22 08:53:21;;;;;;;57.30;29.88;;;;;;;3.99;94.94;97729.28;5084764;28;20020;-75
2023/12/22 08:55:46;;;;;;;54.60;27.95;;;;;;;3.95;94.51;97734.66;5081930;28;20048;-75
2023/12/22 08:58:12;;;;;;;57.58;32.20;;;;;;;3.83;96.42;97737.31;5065129;28;20131;-75
2023/12/22 09:00:37;;;;;;;124.70;57.22;;;;;;;3.71;97.52;97715.91;5081398;28;20036;-74
2023/12/22 09:03:03;;;;;;;220.85;95.20;;;;;;;3.62;100.00;97740.81;5064807;28;20130;-74
2023/12/22 09:05:29;;;;;;;78.60;40.00;;;;;;;3.59;100.00;97727.66;5081984;28;20036;-76
2023/12/22 09:07:54;;;;;;;78.43;48.88;;;;;;;3.56;100.00;97733.88;5082320;28;20138;-78
2023/12/22 09:10:20;;;;;;;89.00;53.70;;;;;;;3.49;100.00;97726.88;5065171;28;20427;-74
2023/12/22 09:12:48;;;;;;;79.20;39.45;;;;;;;3.46;100.00;97733.06;5064659;28;20036;-75
2023/12/22 09:15:14;;;;;;;56.30;33.25;;;;;;;3.47;100.00;97733.91;5064700;28;20097;-76
2023/12/22 09:17:41;;;;;;;54.78;28.77;;;;;;;3.36;100.00;97714.09;5050054;28;20123;-76
2023/12/22 09:20:07;;;;;;;50.15;28.35;;;;;;;3.37;100.00;97713.75;5061393;28;20086;-76
2023/12/22 09:22:33;;;;;;;60.63;33.15;;;;;;;3.49;100.00;97728.84;5066886;28;20044;-74
2023/12/22 09:24:58;;;;;;;58.72;29.33;;;;;;;3.46;100.00;97727.53;5059561;28;20039;-77
2023/12/22 09:27:28;;;;;;;57.63;32.70;;;;;;;3.44;100.00;97715.19;5062337;28;20032;-74
2023/12/22 09:29:54;;;;;;;47.90;29.75;;;;;;;3.56;100.00;97725.56;5054136;28;20075;-73
2023/12/22 09:32:22;;;;;;;55.30;35.15;;;;;;;3.67;100.00;97728.75;5064858;28;20033;-74
2023/12/22 09:34:50;;;;;;;68.95;43.30;;;;;;;3.73;100.00;97722.72;5058419;28;20020;-75
2023/12/22 09:37:15;;;;;;;54.88;30.83;;;;;;;3.67;100.00;97729.59;5059641;28;20053;-76
2023/12/22 09:39:52;;;;;;;87.85;32.10;;;;;;;3.81;100.00;97736.84;5063993;28;20020;-75
2023/12/22 09:42:25;;;;;;;116.13;62.78;;;;;;;3.86;100.00;97720.06;5037662;28;20016;-75
2023/12/22 09:44:54;;;;;;;94.78;57.85;;;;;;;3.98;100.00;97722.94;5061386;28;20055;-75
2023/12/22 09:47:20;;;;;;;78.13;48.45;;;;;;;4.10;100.00;97740.75;5060908;28;20424;-74
2023/12/22 09:49:46;;;;;;;64.97;39.65;;;;;;;4.15;100.00;97723.97;5054602;28;20487;-73
2023/12/22 09:52:13;;;;;;;84.50;44.50;;;;;;;4.18;100.00;97723.31;5066092;28;20027;-73
2023/12/22 09:54:41;;;;;;;67.93;38.22;;;;;;;4.25;100.00;97726.34;5056619;28;20039;-74
2023/12/22 09:57:06;;;;;;;151.13;65.47;;;;;;;4.27;100.00;97729.59;5059972;28;20436;-74
2023/12/22 09:59:33;;;;;;;547.53;238.48;;;;;;;4.40;100.00;97732.44;5063702;28;20028;-74
2023/12/22 10:02:04;;;;;;;1248.90;527.88;;;;;;;4.51;100.00;97719.81;5053676;28;20029;-74
2023/12/22 10:04:30;;;;;;;1221.05;540.08;;;;;;;4.66;100.00;97721.19;5065048;28;20440;-74
2023/12/22 10:07:00;;;;;;;174.27;84.50;;;;;;;4.70;100.00;97729.59;5056800;28;20531;-74
2023/12/22 10:09:26;;;;;;;;;;;;;;;4.82;100.00;97748.25;5056020;28;20045;-74
2023/12/22 10:11:53;;;;;;;80.13;47.42;;;;;;;4.81;100.00;97741.09;5066291;28;19912;-74
2023/12/22 10:14:23;;;;;;;473.52;320.00;;;;;;;4.93;100.00;97735.59;5033128;28;20025;-74
2023/12/22 10:16:52;;;;;;;1655.80;673.50;;;;;;;4.99;100.00;97736.22;5049603;28;20111;-73
2023/12/22 10:19:20;;;;;;;833.38;377.15;;;;;;;5.01;100.00;97733.91;5060243;28;20360;-74
2023/12/22 10:21:45;;;;;;;867.58;375.45;;;;;;;4.94;100.00;97728.09;5054184;28;20520;-75
2023/12/22 10:24:42;;;;;;;908.28;431.98;;;;;;;5.14;100.00;97732.78;5065218;28;20060;-76
2023/12/22 10:27:08;;;;;;;994.50;439.65;;;;;;;5.18;100.00;97722.63;5059852;28;20024;-76
2023/12/22 10:29:34;;;;;;;751.20;384.02;;;;;;;5.26;100.00;97728.44;5054708;28;20412;-75
2023/12/22 10:32:05;;;;;;;372.45;140.98;;;;;;;5.38;100.00;97724.91;5055693;28;20026;-75
2023/12/22 10:34:31;;;;;;;303.92;110.97;;;;;;;5.39;100.00;97719.00;5035347;28;20025;-75
2023/12/22 10:37:07;;;;;;;273.95;96.45;;;;;;;5.42;100.00;97736.91;5047389;28;20074;-75
2023/12/22 10:39:33;;;;;;;387.05;139.85;;;;;;;5.47;100.00;97737.50;5037421;28;20779;-75
2023/12/22 10:41:59;;;;;;;326.77;124.70;;;;;;;5.48;100.00;97736.34;5050585;28;20029;-74
2023/12/22 10:44:25;;;;;;;261.42;105.38;;;;;;;5.62;100.00;97740.75;5068050;28;20043;-75
2023/12/22 10:46:52;;;;;;;244.90;82.97;;;;;;;5.55;100.00;97729.41;5040348;28;20029;-74
2023/12/22 10:49:19;;;;;;;280.00;104.97;;;;;;;5.61;100.00;97731.66;5036459;28;20029;-75
2023/12/22 10:51:44;;;;;;;77.45;40.42;;;;;;;5.60;100.00;97727.22;5039422;28;20139;-74
2023/12/22 10:54:10;;;;;;;76.82;34.55;;;;;;;5.68;100.00;97717.22;5039116;28;20116;-74
2023/12/22 10:56:36;;;;;;;111.95;52.08;;;;;;;5.69;100.00;97723.56;5043845;28;20040;-73
2023/12/22 10:59:03;;;;;;;116.72;40.38;;;;;;;5.79;100.00;97711.19;5041750;28;20079;-75
2023/12/22 11:01:36;;;;;;;82.53;42.22;;;;;;;5.78;100.00;97695.69;5039526;28;20580;-72
2023/12/22 11:04:02;;;;;;;107.72;45.53;;;;;;;5.81;100.00;97703.34;5033710;28;20116;-81
2023/12/22 11:06:35;;;;;;;37.72;25.55;;;;;;;5.80;100.00;97666.44;5039486;28;20036;-78
2023/12/22 11:09:05;;;;;;;23.60;17.60;;;;;;;5.91;100.00;97664.00;5047111;28;20025;-77
2023/12/22 11:11:33;;;;;;;27.83;12.45;;;;;;;5.94;100.00;97679.97;5041326;28;20094;-75
2023/12/22 11:14:03;;;;;;;33.47;17.30;;;;;;;6.00;100.00;97673.03;5038936;28;20863;-76
2023/12/22 11:16:30;;;;;;;53.35;21.10;;;;;;;6.12;100.00;97671.41;5049241;28;20027;-72
2023/12/22 11:18:56;;;;;;;42.30;18.45;;;;;;;6.23;100.00;97663.44;5044183;28;20025;-73
2023/12/22 11:21:25;;;;;;;58.15;22.55;;;;;;;6.38;100.00;97659.91;5030627;28;20075;-80
2023/12/22 11:23:52;;;;;;;21.83;13.88;;;;;;;6.54;100.00;97664.72;5044321;28;20072;-71
2023/12/22 11:26:18;;;;;;;22.27;12.50;;;;;;;6.60;100.00;97633.56;5043744;28;20112;-74
2023/12/22 11:28:51;;;;;;;66.38;27.00;;;;;;;6.76;100.00;97645.91;5041859;28;20076;-72
2023/12/22 11:31:18;;;;;;;55.58;25.67;;;;;;;6.85;100.00;97650.13;5039084;28;20403;-71